createdAt,value
2022-11-20T00:01:35.079Z,36.60
2022-11-20T00:04:03.221Z,37.00
2022-11-20T00:06:31.780Z,43.13
2022-11-20T00:09:02.903Z,40.83
2022-11-20T00:11:32.946Z,39.57
2022-11-20T00:14:03.352Z,38.20
2022-11-20T00:16:33.860Z,36.63
2022-11-20T00:19:01.345Z,34.63
2022-11-20T00:21:30.371Z,36.57
2022-11-20T00:23:58.894Z,34.77
2022-11-20T00:26:28.255Z,34.37
2022-11-20T00:28:59.286Z,36.83
2022-11-20T00:31:27.776Z,38.80
2022-11-20T00:33:55.471Z,36.07
2022-11-20T00:36:27.071Z,36.37
2022-11-20T00:38:59.329Z,38.33
2022-11-20T00:41:29.167Z,39.30
2022-11-20T00:43:57.608Z,42.90
2022-11-20T00:46:28.423Z,47.20
2022-11-20T00:48:56.276Z,43.60
2022-11-20T00:51:26.851Z,37.57
2022-11-20T00:53:57.953Z,36.47
2022-11-20T00:56:25.571Z,36.23
2022-11-20T00:58:53.046Z,35.13
2022-11-20T01:01:25.509Z,34.53
2022-11-20T01:03:57.165Z,34.23
2022-11-20T01:06:34.445Z,36.57
2022-11-20T01:09:09.037Z,35.37
2022-11-20T01:11:40.489Z,42.03
2022-11-20T01:14:12.071Z,44.87
2022-11-20T01:16:46.908Z,36.63
2022-11-20T01:19:22.242Z,34.93
2022-11-20T01:21:55.679Z,37.30
2022-11-20T01:24:24.074Z,36.63
2022-11-20T01:26:52.803Z,37.00
2022-11-20T01:29:26.166Z,36.20
2022-11-20T01:31:53.922Z,35.87
2022-11-20T01:34:23.651Z,33.90
2022-11-20T01:36:52.574Z,32.13
2022-11-20T01:39:28.068Z,33.13
2022-11-20T01:42:15.696Z,31.43
2022-11-20T01:44:51.953Z,36.53
2022-11-20T01:47:36.963Z,33.13
2022-11-20T01:50:18.544Z,32.87
2022-11-20T01:53:06.787Z,31.93
2022-11-20T01:55:40.164Z,33.77
2022-11-20T01:58:08.063Z,32.73
2022-11-20T02:00:35.551Z,31.20
2022-11-20T02:03:09.041Z,32.07
2022-11-20T02:06:19.661Z,31.30
2022-11-20T02:08:48.450Z,29.33
2022-11-20T02:11:15.845Z,30.27
2022-11-20T02:13:46.129Z,29.57
2022-11-20T02:16:39.245Z,29.30
2022-11-20T02:19:23.840Z,26.20
2022-11-20T02:22:05.818Z,25.03
2022-11-20T02:24:33.359Z,26.63
2022-11-20T02:27:12.167Z,25.17
2022-11-20T02:29:47.226Z,26.67
2022-11-20T02:32:33.571Z,25.67
2022-11-20T02:35:20.508Z,26.67
2022-11-20T02:37:52.361Z,26.80
2022-11-20T02:40:20.302Z,25.33
2022-11-20T02:42:47.731Z,24.30
2022-11-20T02:45:15.209Z,24.23
2022-11-20T02:47:42.594Z,26.50
2022-11-20T02:50:10.348Z,26.13
2022-11-20T02:52:37.825Z,27.60
2022-11-20T02:55:06.113Z,27.17
2022-11-20T02:57:33.678Z,27.80
2022-11-20T03:00:01.257Z,28.63
2022-11-20T03:02:32.330Z,26.33
2022-11-20T03:04:59.991Z,28.60
2022-11-20T03:07:27.499Z,27.53
2022-11-20T03:09:54.927Z,27.90
2022-11-20T03:12:22.579Z,28.07
2022-11-20T03:14:53.119Z,25.63
2022-11-20T03:17:21.052Z,25.93
2022-11-20T03:19:48.508Z,25.10
2022-11-20T03:22:16.131Z,25.67
2022-11-20T03:24:43.546Z,30.03
2022-11-20T03:27:11.082Z,27.23
2022-11-20T03:29:38.503Z,24.23
2022-11-20T03:32:06.407Z,27.87
2022-11-20T03:34:33.824Z,26.27
2022-11-20T03:37:01.275Z,27.33
2022-11-20T03:39:28.680Z,29.30
2022-11-20T03:41:56.108Z,24.53
2022-11-20T03:44:23.863Z,24.00
2022-11-20T03:46:51.311Z,24.40
2022-11-20T03:49:18.892Z,23.43
2022-11-20T03:51:46.560Z,25.90
2022-11-20T03:54:13.938Z,26.93
2022-11-20T03:56:41.440Z,30.03
2022-11-20T03:59:11.962Z,30.20
2022-11-20T04:01:39.452Z,30.43
2022-11-20T04:04:07.140Z,28.67
2022-11-20T04:06:39.856Z,27.07
2022-11-20T04:09:07.830Z,26.00
2022-11-20T04:11:38.134Z,26.97
2022-11-20T04:14:08.832Z,26.63
2022-11-20T04:16:37.459Z,25.77
2022-11-20T04:19:08.203Z,39.47
2022-11-20T04:21:35.752Z,34.67
2022-11-20T04:24:03.950Z,32.30
2022-11-20T04:26:32.510Z,28.10
2022-11-20T04:29:00.365Z,27.73
2022-11-20T04:31:31.408Z,28.47
2022-11-20T04:34:05.340Z,26.63
2022-11-20T04:36:34.044Z,26.77
2022-11-20T04:39:06.481Z,25.60
2022-11-20T04:41:37.018Z,24.67
2022-11-20T04:44:06.805Z,27.58
2022-11-20T04:46:41.011Z,30.97
2022-11-20T04:49:09.082Z,28.40
2022-11-20T04:51:36.810Z,31.03
2022-11-20T04:54:04.437Z,29.37
2022-11-20T04:56:31.843Z,27.87
2022-11-20T04:59:02.835Z,26.57
2022-11-20T05:01:30.732Z,25.50
2022-11-20T05:03:58.222Z,26.23
2022-11-20T05:06:25.647Z,25.60
2022-11-20T05:08:53.093Z,25.77
2022-11-20T05:11:22.492Z,26.97
2022-11-20T05:13:52.132Z,27.27
2022-11-20T05:16:22.729Z,28.63
2022-11-20T05:18:51.682Z,31.13
2022-11-20T05:21:19.567Z,28.27
2022-11-20T05:23:47.940Z,27.17
2022-11-20T05:26:22.611Z,25.97
2022-11-20T05:28:51.566Z,28.03
2022-11-20T05:31:27.790Z,25.83
2022-11-20T05:33:58.018Z,25.00
2022-11-20T05:36:26.318Z,25.67
2022-11-20T05:38:58.013Z,25.75
2022-11-20T05:41:28.770Z,27.33
2022-11-20T05:43:59.983Z,27.27
2022-11-20T05:46:29.298Z,28.00
2022-11-20T05:48:58.550Z,28.57
2022-11-20T05:51:27.163Z,33.10
2022-11-20T05:53:54.923Z,35.50
2022-11-20T05:56:23.335Z,32.03
2022-11-20T05:58:51.237Z,33.07
2022-11-20T06:01:26.808Z,27.27
2022-11-20T06:03:56.435Z,27.63
2022-11-20T06:06:24.200Z,26.13
2022-11-20T06:08:51.646Z,27.67
2022-11-20T06:11:19.845Z,29.10
2022-11-20T06:13:48.520Z,28.53
2022-11-20T06:16:19.711Z,28.30
2022-11-20T06:18:47.951Z,31.13
2022-11-20T06:21:22.045Z,28.17
2022-11-20T06:23:50.665Z,28.90
2022-11-20T06:26:26.098Z,31.67
2022-11-20T06:28:57.278Z,30.70
2022-11-20T06:31:27.040Z,29.43
2022-11-20T06:33:54.822Z,33.20
2022-11-20T06:36:24.057Z,34.47
2022-11-20T06:38:51.772Z,29.90
2022-11-20T06:41:22.089Z,32.87
2022-11-20T06:43:50.369Z,31.60
2022-11-20T06:46:19.794Z,30.70
2022-11-20T06:48:48.977Z,28.00
2022-11-20T06:51:16.601Z,28.67
2022-11-20T06:53:44.088Z,28.17
2022-11-20T06:56:11.571Z,27.90
2022-11-20T06:58:39.096Z,28.40
2022-11-20T07:01:11.190Z,28.37
2022-11-20T07:03:39.440Z,30.03
2022-11-20T07:06:07.618Z,29.33
2022-11-20T07:08:36.170Z,29.97
2022-11-20T07:11:07.560Z,31.30
2022-11-20T07:13:35.874Z,32.00
2022-11-20T07:16:07.498Z,33.90
2022-11-20T07:18:35.573Z,32.00
2022-11-20T07:21:05.298Z,34.03
2022-11-20T07:23:32.957Z,35.03
2022-11-20T07:26:08.570Z,37.83
2022-11-20T07:28:36.981Z,30.83
2022-11-20T07:31:06.133Z,33.57
2022-11-20T07:33:33.854Z,30.13
2022-11-20T07:36:01.991Z,26.63
2022-11-20T07:38:29.785Z,27.23
2022-11-20T07:41:04.682Z,27.13
2022-11-20T07:43:34.831Z,26.77
2022-11-20T07:46:05.999Z,31.70
2022-11-20T07:48:33.457Z,32.93
2022-11-20T07:51:00.855Z,31.77
2022-11-20T07:53:28.320Z,25.20
2022-11-20T07:55:55.743Z,24.03
2022-11-20T07:58:23.543Z,24.43
2022-11-20T08:00:51.012Z,24.07
2022-11-20T08:03:24.318Z,24.53
2022-11-20T08:05:52.813Z,31.83
2022-11-20T08:08:20.494Z,29.10
2022-11-20T08:10:47.927Z,31.80
2022-11-20T08:13:33.723Z,35.83
2022-11-20T08:16:01.182Z,29.93
2022-11-20T08:18:31.753Z,29.63
2022-11-20T08:21:04.916Z,40.63
2022-11-20T08:23:32.608Z,39.60
2022-11-20T08:26:00.087Z,31.17
2022-11-20T08:28:27.532Z,31.80
2022-11-20T08:31:03.319Z,25.97
2022-11-20T08:33:31.410Z,27.23
2022-11-20T08:36:04.387Z,26.27
2022-11-20T08:38:33.112Z,30.23
2022-11-20T08:41:21.116Z,28.23
2022-11-20T08:43:48.648Z,27.10
2022-11-20T08:46:16.250Z,26.57
2022-11-20T08:48:44.454Z,25.60
2022-11-20T08:51:13.647Z,26.17
2022-11-20T08:53:42.623Z,26.77
2022-11-20T08:56:13.270Z,27.30
2022-11-20T08:59:09.830Z,26.77
2022-11-20T09:01:30.447Z,27.33
2022-11-20T09:03:58.444Z,25.60
2022-11-20T09:06:25.931Z,24.77
2022-11-20T09:08:54.677Z,24.87
2022-11-20T09:11:22.885Z,25.23
2022-11-20T09:13:50.569Z,25.70
2022-11-20T09:16:18.022Z,23.30
2022-11-20T09:18:45.466Z,22.60
2022-11-20T09:21:15.283Z,22.20
2022-11-20T09:23:42.800Z,21.43
2022-11-20T09:26:15.022Z,20.97
2022-11-20T09:28:42.712Z,21.30
2022-11-20T09:31:21.263Z,27.40
2022-11-20T09:33:48.648Z,25.53
2022-11-20T09:36:17.124Z,20.53
2022-11-20T09:38:44.543Z,22.17
2022-11-20T09:41:49.308Z,19.73
2022-11-20T09:45:01.150Z,19.27
2022-11-20T09:48:12.902Z,18.57
2022-11-20T09:51:28.769Z,18.53
2022-11-20T09:54:20.279Z,17.13
2022-11-20T09:57:14.105Z,17.97
2022-11-20T09:59:48.355Z,17.80
2022-11-20T10:02:24.454Z,18.73
2022-11-20T10:05:04.755Z,18.00
2022-11-20T10:07:44.448Z,19.83
2022-11-20T10:10:29.244Z,18.40
2022-11-20T10:13:47.913Z,16.97
2022-11-20T10:17:22.669Z,17.33
2022-11-20T10:20:31.924Z,17.53
2022-11-20T10:23:26.019Z,18.17
2022-11-20T10:26:03.284Z,17.17
2022-11-20T10:28:36.732Z,16.63
2022-11-20T10:31:33.558Z,17.40
2022-11-20T10:34:19.350Z,17.20
2022-11-20T10:37:17.424Z,17.27
2022-11-20T10:40:08.077Z,17.67
2022-11-20T10:42:48.130Z,16.87
2022-11-20T10:45:25.512Z,17.13
2022-11-20T10:48:24.416Z,17.93
2022-11-20T10:51:30.001Z,18.50
2022-11-20T10:54:56.544Z,16.90
2022-11-20T10:58:05.509Z,16.90
2022-11-20T11:00:33.519Z,16.13
2022-11-20T11:03:04.170Z,14.27
2022-11-20T11:05:42.037Z,14.80
2022-11-20T11:08:16.584Z,13.67
2022-11-20T11:11:04.049Z,16.80
2022-11-20T11:13:32.228Z,15.80
2022-11-20T11:16:00.024Z,20.33
2022-11-20T11:18:35.972Z,14.90
2022-11-20T11:21:06.263Z,13.80
2022-11-20T11:23:42.196Z,14.17
2022-11-20T11:26:24.402Z,14.97
2022-11-20T11:29:04.379Z,14.13
2022-11-20T11:31:36.731Z,14.53
2022-11-20T11:34:17.821Z,13.90
2022-11-20T11:36:59.406Z,14.33
2022-11-20T11:39:30.337Z,15.47
2022-11-20T11:41:59.654Z,14.90
2022-11-20T11:44:53.800Z,15.37
2022-11-20T11:47:31.099Z,14.63
2022-11-20T11:50:10.529Z,14.90
2022-11-20T11:53:16.276Z,15.00
2022-11-20T11:55:50.335Z,14.70
2022-11-20T11:58:17.693Z,13.23
2022-11-20T12:00:59.989Z,12.50
2022-11-20T12:03:38.697Z,12.40
2022-11-20T12:06:16.401Z,13.87
2022-11-20T12:09:09.745Z,22.47
2022-11-20T12:12:09.219Z,13.90
2022-11-20T12:14:40.755Z,12.93
2022-11-20T12:17:14.426Z,12.03
2022-11-20T12:19:42.284Z,13.50
2022-11-20T12:22:46.991Z,11.63
2022-11-20T12:25:19.236Z,10.13
2022-11-20T12:28:07.276Z,10.70
2022-11-20T12:31:25.628Z,11.37
2022-11-20T12:34:24.488Z,11.73
2022-11-20T12:37:17.220Z,11.53
2022-11-20T12:39:51.810Z,11.40
2022-11-20T12:42:48.050Z,11.37
2022-11-20T12:45:59.968Z,12.10
2022-11-20T12:48:33.931Z,11.70
2022-11-20T12:51:38.095Z,12.60
2022-11-20T12:54:30.951Z,11.40
2022-11-20T12:57:13.681Z,11.67
2022-11-20T13:00:12.018Z,11.60
2022-11-20T13:03:01.060Z,11.40
2022-11-20T13:06:05.392Z,12.37
2022-11-20T13:08:43.225Z,11.37
2022-11-20T13:11:40.537Z,11.90
2022-11-20T13:14:41.305Z,11.43
2022-11-20T13:17:17.500Z,10.90
2022-11-20T13:19:55.091Z,9.67
2022-11-20T13:22:52.927Z,10.20
2022-11-20T13:25:34.241Z,10.20
2022-11-20T13:28:30.650Z,10.57
2022-11-20T13:30:59.646Z,11.73
2022-11-20T13:33:37.072Z,12.40
2022-11-20T13:36:22.650Z,11.50
2022-11-20T13:38:56.101Z,11.07
2022-11-20T13:41:39.084Z,11.93
2022-11-20T13:44:26.926Z,10.43
2022-11-20T13:46:54.877Z,12.13
2022-11-20T13:49:45.185Z,11.27
2022-11-20T13:52:31.952Z,10.67
2022-11-20T13:55:23.824Z,10.67
2022-11-20T13:58:54.976Z,11.37
2022-11-20T14:01:26.636Z,14.33
2022-11-20T14:04:10.377Z,12.17
2022-11-20T14:06:44.699Z,11.57
2022-11-20T14:09:32.022Z,11.00
2022-11-20T14:12:00.309Z,12.33
2022-11-20T14:14:31.359Z,12.60
2022-11-20T14:17:18.743Z,14.03
2022-11-20T14:19:49.690Z,13.13
2022-11-20T14:22:28.506Z,12.70
2022-11-20T14:25:16.685Z,11.33
2022-11-20T14:27:55.764Z,11.03
2022-11-20T14:30:45.424Z,11.37
2022-11-20T14:33:15.488Z,13.10
2022-11-20T14:35:49.248Z,13.27
2022-11-20T14:38:21.114Z,13.73
2022-11-20T14:40:48.657Z,13.30
2022-11-20T14:43:29.828Z,13.37
2022-11-20T14:46:01.747Z,14.30
2022-11-20T14:48:51.182Z,15.20
2022-11-20T14:51:44.378Z,14.53
2022-11-20T14:54:23.757Z,14.17
2022-11-20T14:57:03.893Z,14.30
2022-11-20T14:59:34.469Z,13.83
2022-11-20T15:02:21.375Z,14.17
2022-11-20T15:04:58.038Z,16.60
2022-11-20T15:07:32.797Z,17.50
2022-11-20T15:10:14.577Z,16.03
2022-11-20T15:12:51.275Z,16.37
2022-11-20T15:15:45.605Z,16.93
2022-11-20T15:18:23.285Z,16.43
2022-11-20T15:20:51.391Z,17.70
2022-11-20T15:23:20.608Z,16.10
2022-11-20T15:25:49.653Z,15.07
2022-11-20T15:28:41.920Z,15.97
2022-11-20T15:31:14.063Z,14.27
2022-11-20T15:33:41.473Z,14.37
2022-11-20T15:36:09.763Z,15.33
2022-11-20T15:38:38.027Z,18.63
2022-11-20T15:41:06.475Z,17.73
2022-11-20T15:43:34.117Z,15.30
2022-11-20T15:46:14.480Z,15.00
2022-11-20T15:48:48.273Z,17.90
2022-11-20T15:51:33.200Z,21.07
2022-11-20T15:54:00.679Z,16.43
2022-11-20T15:56:28.220Z,16.07
2022-11-20T15:58:55.700Z,18.53
2022-11-20T16:01:24.017Z,19.77
2022-11-20T16:03:51.610Z,20.50
2022-11-20T16:06:19.027Z,21.03
2022-11-20T16:08:46.570Z,21.30
2022-11-20T16:11:17.013Z,20.93
2022-11-20T16:14:03.772Z,21.67
2022-11-20T16:16:35.899Z,21.80
2022-11-20T16:19:03.954Z,25.97
2022-11-20T16:21:32.364Z,27.93
2022-11-20T16:24:14.384Z,26.00
2022-11-20T16:26:42.482Z,21.10
2022-11-20T16:29:11.205Z,22.50
2022-11-20T16:31:39.128Z,20.10
2022-11-20T16:34:23.883Z,19.90
2022-11-20T16:36:51.453Z,17.70
2022-11-20T16:39:23.355Z,18.13
2022-11-20T16:41:51.500Z,18.70
2022-11-20T16:44:18.929Z,18.93
2022-11-20T16:46:46.317Z,16.60
2022-11-20T16:49:15.013Z,17.27
2022-11-20T16:51:43.027Z,17.87
2022-11-20T16:54:12.353Z,18.97
2022-11-20T16:56:43.157Z,18.40
2022-11-20T16:59:11.009Z,18.93
2022-11-20T17:01:40.489Z,15.90
2022-11-20T17:04:08.201Z,15.37
2022-11-20T17:06:42.110Z,15.13
2022-11-20T17:09:09.823Z,14.97
2022-11-20T17:11:38.363Z,18.10
2022-11-20T17:14:09.623Z,15.23
2022-11-20T17:16:38.355Z,14.83
2022-11-20T17:19:06.331Z,15.00
2022-11-20T17:21:39.510Z,17.53
2022-11-20T17:24:12.818Z,18.97
2022-11-20T17:26:42.807Z,19.50
2022-11-20T17:29:19.298Z,19.63
2022-11-20T17:31:46.771Z,19.10
2022-11-20T17:34:16.011Z,18.97
2022-11-20T17:36:47.798Z,19.03
2022-11-20T17:39:17.052Z,25.67
2022-11-20T17:41:45.206Z,20.70
2022-11-20T17:44:13.848Z,18.30
2022-11-20T17:46:41.628Z,19.40
2022-11-20T17:49:09.070Z,18.60
2022-11-20T17:51:36.735Z,19.17
2022-11-20T17:54:07.789Z,19.20
2022-11-20T17:56:55.051Z,24.13
2022-11-20T17:59:22.863Z,23.30
2022-11-20T18:01:50.443Z,22.23
2022-11-20T18:04:18.221Z,18.70
2022-11-20T18:06:46.337Z,17.17
2022-11-20T18:09:13.789Z,16.97
2022-11-20T18:11:43.084Z,17.13
2022-11-20T18:14:36.754Z,16.63
2022-11-20T18:17:11.856Z,16.40
2022-11-20T18:20:06.789Z,17.50
2022-11-20T18:26:33.347Z,17.00
2022-11-20T18:29:06.063Z,16.90
2022-11-20T18:31:35.179Z,17.67
2022-11-20T18:34:02.744Z,17.70
2022-11-20T18:36:32.425Z,17.33
2022-11-20T18:39:01.992Z,18.47
2022-11-20T18:41:49.971Z,19.10
2022-11-20T18:44:46.733Z,19.70
2022-11-20T18:47:21.611Z,20.10
2022-11-20T18:49:52.870Z,18.60
2022-11-20T18:52:42.106Z,17.90
2022-11-20T18:55:10.502Z,19.00
2022-11-20T18:57:38.066Z,18.70
2022-11-20T19:00:09.750Z,20.20
2022-11-20T19:02:42.159Z,17.17
2022-11-20T19:05:15.025Z,18.90
2022-11-20T19:07:43.363Z,21.57
2022-11-20T19:10:11.280Z,20.63
2022-11-20T19:12:38.769Z,19.80
2022-11-20T19:15:06.874Z,19.93
2022-11-20T19:17:34.489Z,20.43
2022-11-20T19:20:01.985Z,22.93
2022-11-20T19:22:29.588Z,22.90
2022-11-20T19:24:56.976Z,21.43
2022-11-20T19:27:24.394Z,19.43
2022-11-20T19:29:51.958Z,19.40
2022-11-20T19:32:19.690Z,20.87
2022-11-20T19:34:47.172Z,19.90
2022-11-20T19:37:14.555Z,21.63
2022-11-20T19:39:42.018Z,23.77
2022-11-20T19:42:09.402Z,23.23
2022-11-20T19:44:36.828Z,23.10
2022-11-20T19:47:08.888Z,22.07
2022-11-20T19:49:41.934Z,21.50
2022-11-20T19:52:09.658Z,22.60
2022-11-20T19:54:37.076Z,19.27
2022-11-20T19:57:04.471Z,22.50
2022-11-20T19:59:31.979Z,18.03
2022-11-20T20:01:59.687Z,26.20
2022-11-20T20:04:27.523Z,25.83
2022-11-20T20:06:55.194Z,24.40
2022-11-20T20:09:23.935Z,26.47
2022-11-20T20:11:51.551Z,36.07
2022-11-20T20:14:19.401Z,29.50
2022-11-20T20:16:47.331Z,28.07
2022-11-20T20:19:16.185Z,27.37
2022-11-20T20:21:44.552Z,26.57
2022-11-20T20:24:13.271Z,26.83
2022-11-20T20:26:40.876Z,27.50
2022-11-20T20:29:08.798Z,28.73
2022-11-20T20:31:36.675Z,29.07
2022-11-20T20:34:05.548Z,30.67
2022-11-20T20:36:33.336Z,33.33
2022-11-20T20:39:02.915Z,40.43
2022-11-20T20:41:31.075Z,35.70
2022-11-20T20:44:17.190Z,29.57
2022-11-20T20:46:44.792Z,28.83
2022-11-20T20:49:12.546Z,29.83
2022-11-20T20:51:40.077Z,29.53
2022-11-20T20:54:07.520Z,29.37
2022-11-20T20:56:35.162Z,30.33
2022-11-20T20:59:03.808Z,30.20
2022-11-20T21:01:31.530Z,28.87
2022-11-20T21:03:59.094Z,27.47
2022-11-20T21:06:27.167Z,27.57
2022-11-20T21:08:56.107Z,27.37
2022-11-20T21:11:23.585Z,28.87
2022-11-20T21:13:51.068Z,26.07
2022-11-20T21:16:21.282Z,26.47
2022-11-20T21:18:49.306Z,24.53
2022-11-20T21:21:36.951Z,27.50
2022-11-20T21:24:04.804Z,28.17
2022-11-20T21:26:32.291Z,30.10
2022-11-20T21:28:59.793Z,34.17
2022-11-20T21:31:28.883Z,37.37
2022-11-20T21:33:58.300Z,37.30
2022-11-20T21:36:28.972Z,33.07
2022-11-20T21:38:59.539Z,34.20
2022-11-20T21:41:32.698Z,38.53
2022-11-20T21:46:51.367Z,42.70
2022-11-20T21:49:18.781Z,39.90
2022-11-20T21:51:46.233Z,41.57
2022-11-20T21:54:13.894Z,39.47
2022-11-20T21:56:41.266Z,36.77
2022-11-20T21:59:13.411Z,38.10
2022-11-20T22:01:41.813Z,39.97
2022-11-20T22:04:15.756Z,38.50
2022-11-20T22:06:43.213Z,37.43
2022-11-20T22:09:11.324Z,39.30
2022-11-20T22:11:38.860Z,32.60
2022-11-20T22:14:21.754Z,31.80
2022-11-20T22:16:51.209Z,32.83
2022-11-20T22:19:23.601Z,37.37
2022-11-20T22:21:51.392Z,36.30
2022-11-20T22:24:21.473Z,33.20
2022-11-20T22:26:49.188Z,33.93
2022-11-20T22:29:21.008Z,35.73
2022-11-20T22:31:51.051Z,37.90
2022-11-20T22:34:18.492Z,33.97
2022-11-20T22:36:45.964Z,33.67
2022-11-20T22:39:14.121Z,33.67
2022-11-20T22:41:41.535Z,34.33
2022-11-20T22:44:09.342Z,33.27
2022-11-20T22:46:38.644Z,32.77
2022-11-20T22:49:11.118Z,32.97
2022-11-20T22:51:41.535Z,36.13
2022-11-20T22:54:12.338Z,40.93
2022-11-20T22:56:41.259Z,41.33
2022-11-20T22:59:08.826Z,42.60
2022-11-20T23:01:37.469Z,41.93
2022-11-20T23:04:09.384Z,41.17
2022-11-20T23:06:36.914Z,45.27
2022-11-20T23:09:09.043Z,46.57
2022-11-20T23:11:37.160Z,44.50
2022-11-20T23:14:11.195Z,41.83
2022-11-20T23:16:38.590Z,44.13
2022-11-20T23:19:10.503Z,41.63
2022-11-20T23:21:40.763Z,42.00
2022-11-20T23:24:09.086Z,44.73
2022-11-20T23:26:39.856Z,43.87
2022-11-20T23:29:08.134Z,51.83
2022-11-20T23:31:36.662Z,48.67
2022-11-20T23:34:04.740Z,47.43
2022-11-20T23:36:32.763Z,55.67
2022-11-20T23:39:00.216Z,47.90
2022-11-20T23:41:27.784Z,46.57
2022-11-20T23:43:55.228Z,41.53
2022-11-20T23:46:23.001Z,41.17
2022-11-20T23:48:50.492Z,43.93
2022-11-20T23:51:18.224Z,45.10
2022-11-20T23:53:45.902Z,39.73
2022-11-20T23:56:14.777Z,39.27
2022-11-20T23:58:43.394Z,45.07
